Time;durP1;ratioP1;P1;durP2;ratioP2;P2;SDS_P1;SDS_P2;PMS_P1;PMS_P2;Temp;Humidity;BMP_temperature;BMP_pressure;BME280_temperature;BME280_humidity;BME280_pressure;Samples;Min_cycle;Max_cycle;Signal;HPM_P1;HPM_P2
2022/07/11 00:01:52;;;;;;;18.67;7.70;;;18.50;99.90;18.80;98270.00;;;;4999884;28;86437;-64
2022/07/11 00:04:30;;;;;;;14.75;7.47;;;18.50;99.90;18.80;98283.00;;;;4987732;28;88626;-63
2022/07/11 00:07:00;;;;;;;11.98;7.25;;;18.60;99.90;18.80;98297.00;;;;5005899;28;87969;-63
2022/07/11 00:09:27;;;;;;;16.98;7.93;;;18.60;99.90;18.80;98304.00;;;;5023172;28;88116;-63
2022/07/11 00:11:54;;;;;;;12.55;8.00;;;18.70;99.90;18.80;98312.00;;;;5031797;28;87312;-63
2022/07/11 00:14:24;;;;;;;13.20;8.63;;;18.60;99.90;18.80;98299.00;;;;4999573;28;87620;-63
2022/07/11 00:16:55;;;;;;;13.73;8.05;;;18.60;99.90;18.80;98297.00;;;;5027516;28;87493;-62
2022/07/11 00:19:22;;;;;;;15.20;7.73;;;18.60;99.90;18.80;98304.00;;;;5032394;28;86972;-61
2022/07/11 00:21:50;;;;;;;10.15;7.22;;;18.70;99.90;18.90;98302.00;;;;5035880;28;87104;-62
2022/07/11 00:24:19;;;;;;;12.00;6.43;;;18.70;99.90;19.00;98301.00;;;;5038950;28;87540;-63
2022/07/11 00:26:49;;;;;;;9.93;6.38;;;18.80;99.90;19.00;98300.00;;;;5027956;28;88035;-64
2022/07/11 00:29:16;;;;;;;11.18;6.90;;;18.90;99.90;19.10;98290.00;;;;5003869;28;87032;-65
2022/07/11 00:31:43;;;;;;;11.63;6.32;;;18.90;99.90;19.10;98298.00;;;;5011682;28;87025;-62
2022/07/11 00:34:10;;;;;;;9.48;7.13;;;18.90;99.90;19.10;98299.00;;;;5039567;28;88519;-62
2022/07/11 00:36:37;;;;;;;9.90;6.20;;;18.90;99.90;19.10;98292.00;;;;5040265;28;88049;-61
2022/07/11 00:39:03;;;;;;;11.43;5.80;;;19.00;99.90;19.20;98290.00;;;;5040758;28;87077;-62
2022/07/11 00:41:29;;;;;;;10.43;5.93;;;19.00;99.90;19.20;98287.00;;;;5027399;28;86969;-62
2022/07/11 00:43:59;;;;;;;10.13;6.05;;;19.10;99.90;19.30;98286.00;;;;5038761;28;88704;-61
2022/07/11 00:46:27;;;;;;;9.43;5.53;;;19.10;99.90;19.30;98279.00;;;;5035546;28;88382;-63
2022/07/11 00:48:53;;;;;;;7.78;5.85;;;19.10;99.90;19.30;98279.00;;;;5011065;28;87461;-63
2022/07/11 00:51:21;;;;;;;7.65;5.00;;;19.10;99.90;19.30;98267.00;;;;5014709;28;86707;-67
2022/07/11 00:53:55;;;;;;;8.98;5.03;;;19.10;99.90;19.30;98273.00;;;;5026895;28;88171;-63
2022/07/11 00:56:32;;;;;;;11.02;5.00;;;19.10;99.90;19.30;98261.00;;;;5032011;27;88464;-60
2022/07/11 00:58:59;;;;;;;8.18;4.95;;;19.10;99.90;19.30;98269.00;;;;5013157;28;88553;-61
2022/07/11 01:01:26;;;;;;;9.13;4.50;;;19.10;99.90;19.30;98258.00;;;;5019408;28;87026;-66
2022/07/11 01:03:52;;;;;;;7.78;5.07;;;19.10;99.90;19.30;98252.00;;;;5029450;28;86995;-63
2022/07/11 01:06:19;;;;;;;9.38;4.50;;;19.10;99.90;19.30;98253.00;;;;5022780;28;89558;-62
2022/07/11 01:08:45;;;;;;;8.27;4.68;;;19.10;99.90;19.30;98247.00;;;;5009281;28;87041;-62
2022/07/11 01:11:15;;;;;;;8.75;4.47;;;19.20;99.90;19.40;98250.00;;;;5035326;28;87946;-62
2022/07/11 01:13:43;;;;;;;8.77;4.70;;;19.20;99.90;19.40;98242.00;;;;5014680;28;89867;-61
2022/07/11 01:16:19;;;;;;;9.25;4.85;;;19.20;99.90;19.50;98246.00;;;;4983204;28;89775;-62
2022/07/11 01:18:54;;;;;;;9.25;4.43;;;19.30;99.90;19.50;98235.00;;;;5020282;28;87564;-63
2022/07/11 01:21:31;;;;;;;10.10;5.20;;;19.30;99.90;19.60;98232.00;;;;5029082;28;87027;-63
2022/07/11 01:24:01;;;;;;;9.45;5.30;;;19.40;99.90;19.60;98234.00;;;;4988866;28;90137;-66
2022/07/11 01:26:29;;;;;;;8.07;4.43;;;19.40;99.90;19.60;98253.00;;;;4997932;28;88397;-64
2022/07/11 01:29:05;;;;;;;8.52;6.43;;;19.50;99.90;19.70;98234.00;;;;5043816;28;86903;-65
2022/07/11 01:31:31;;;;;;;15.13;6.55;;;19.40;99.90;19.70;98231.00;;;;4980050;28;87570;-65
2022/07/11 01:33:58;;;;;;;11.73;6.95;;;19.40;99.90;19.60;98236.00;;;;5042780;28;88609;-63
2022/07/11 01:36:24;;;;;;;8.82;6.93;;;19.40;99.90;19.70;98228.00;;;;5043365;28;87508;-63
2022/07/11 01:38:53;;;;;;;8.68;6.18;;;19.40;99.90;19.70;98224.00;;;;5043261;28;87204;-66
2022/07/11 01:41:21;;;;;;;11.38;6.43;;;19.40;99.90;19.70;98224.00;;;;5024695;28;86247;-64
2022/07/11 01:43:50;;;;;;;10.52;6.95;;;19.50;99.90;19.70;98224.00;;;;5023012;28;87515;-65
2022/07/11 01:46:17;;;;;;;9.30;5.78;;;19.50;99.90;19.70;98220.00;;;;5040715;28;87391;-62
2022/07/11 01:48:49;;;;;;;10.48;5.97;;;19.40;99.90;19.70;98208.00;;;;5013872;28;88607;-63
2022/07/11 01:51:16;;;;;;;8.10;5.97;;;19.50;99.90;19.70;98197.00;;;;5015719;28;87694;-62
2022/07/11 01:53:42;;;;;;;9.02;6.03;;;19.50;99.90;19.60;98178.00;;;;5016554;28;88313;-64
2022/07/11 01:56:08;;;;;;;8.75;5.50;;;19.40;99.90;19.60;98178.00;;;;4986212;28;90165;-63
2022/07/11 01:58:35;;;;;;;10.57;5.38;;;19.40;99.90;19.70;98169.00;;;;5013554;28;87287;-61
2022/07/11 02:01:04;;;;;;;7.57;5.80;;;19.40;99.90;19.70;98183.00;;;;5039287;28;87262;-62
2022/07/11 02:03:30;;;;;;;12.05;6.10;;;19.50;99.90;19.60;98181.00;;;;5029069;28;87537;-62
2022/07/11 02:05:57;;;;;;;8.25;5.75;;;19.40;99.90;19.50;98192.00;;;;5019311;28;87886;-62
2022/07/11 02:08:23;;;;;;;9.85;6.05;;;19.30;99.90;19.50;98195.00;;;;5024041;28;87542;-62
2022/07/11 02:10:52;;;;;;;9.02;5.60;;;19.30;99.90;19.60;98198.00;;;;5016251;28;87493;-63
2022/07/11 02:13:22;;;;;;;8.73;6.50;;;19.40;99.90;19.70;98193.00;;;;5028432;28;88458;-62
2022/07/11 02:15:50;;;;;;;12.30;6.60;;;19.40;99.90;19.60;98210.00;;;;5003834;28;90566;-61
2022/07/11 02:18:21;;;;;;;8.57;5.97;;;19.40;99.90;19.50;98221.00;;;;5034338;28;87474;-65
2022/07/11 02:20:51;;;;;;;9.20;6.30;;;19.30;99.90;19.50;98225.00;;;;5001105;28;87004;-62
2022/07/11 02:23:21;;;;;;;8.13;5.40;;;19.20;99.90;19.40;98226.00;;;;5025174;28;88580;-63
2022/07/11 02:25:48;;;;;;;13.77;6.30;;;19.20;99.90;19.40;98227.00;;;;5007195;28;90465;-60
2022/07/11 02:28:15;;;;;;;7.00;6.07;;;19.20;99.90;19.40;98220.00;;;;5040496;28;86976;-63
2022/07/11 02:30:52;;;;;;;9.23;6.60;;;19.10;99.90;19.40;98234.00;;;;5035553;28;86264;-62
2022/07/11 02:33:19;;;;;;;7.88;6.10;;;19.10;99.90;19.30;98229.00;;;;5027197;28;87571;-62
2022/07/11 02:35:46;;;;;;;7.50;6.03;;;19.10;99.90;19.30;98220.00;;;;5007124;28;89670;-61
2022/07/11 02:38:14;;;;;;;9.48;6.25;;;19.00;99.90;19.20;98227.00;;;;5007919;28;88287;-63
2022/07/11 02:40:47;;;;;;;7.72;6.60;;;19.00;99.90;19.20;98220.00;;;;5006689;28;87166;-63
2022/07/11 02:43:18;;;;;;;10.55;5.78;;;19.00;99.90;19.20;98216.00;;;;5001542;28;89665;-62
2022/07/11 02:45:44;;;;;;;10.98;5.80;;;19.00;99.90;19.20;98208.00;;;;4977081;28;89369;-61
2022/07/11 02:48:11;;;;;;;10.43;6.15;;;19.00;99.90;19.20;98202.00;;;;5032947;28;87170;-63
2022/07/11 02:50:37;;;;;;;10.13;6.72;;;18.90;99.90;19.20;98201.00;;;;4977383;28;87189;-63
2022/07/11 02:53:03;;;;;;;10.02;5.75;;;19.00;99.90;19.20;98201.00;;;;5030665;28;87649;-61
2022/07/11 02:55:30;;;;;;;8.73;6.15;;;19.00;99.90;19.20;98198.00;;;;5010294;28;87281;-62
2022/07/11 02:58:03;;;;;;;8.13;6.10;;;19.00;99.90;19.20;98207.00;;;;4972805;28;87358;-64
2022/07/11 03:00:31;;;;;;;9.23;6.03;;;19.00;99.90;19.30;98203.00;;;;4987323;28;87122;-59
2022/07/11 03:02:58;;;;;;;6.80;5.45;;;19.00;99.90;19.30;98205.00;;;;5035663;28;88716;-65
2022/07/11 03:05:27;;;;;;;7.55;5.85;;;19.00;99.90;19.30;98193.00;;;;5011006;28;88075;-67
2022/07/11 03:07:53;;;;;;;8.55;5.90;;;19.10;99.90;19.40;98193.00;;;;4994549;28;87042;-64
2022/07/11 03:10:23;;;;;;;8.15;5.65;;;19.20;99.90;19.60;98190.00;;;;5035378;28;86992;-61
2022/07/11 03:12:50;;;;;;;6.60;5.43;;;19.40;99.90;19.70;98197.00;;;;5008060;28;91231;-63
2022/07/11 03:15:17;;;;;;;8.70;5.50;;;19.40;99.90;19.70;98198.00;;;;5036835;28;87452;-61
2022/07/11 03:17:43;;;;;;;8.20;5.30;;;19.40;99.90;19.80;98193.00;;;;5033229;28;87545;-63
2022/07/11 03:20:11;;;;;;;8.85;5.07;;;19.50;99.90;19.90;98204.00;;;;5011556;28;86438;-60
2022/07/11 03:22:37;;;;;;;7.00;5.55;;;19.60;99.90;20.20;98204.00;;;;5025716;28;87594;-60
2022/07/11 03:25:09;;;;;;;8.38;4.82;;;19.90;99.90;20.80;98204.00;;;;5004450;28;87344;-62
2022/07/11 03:27:44;;;;;;;7.97;5.10;;;20.50;99.90;21.10;98210.00;;;;4991702;28;88451;-64
2022/07/11 03:30:10;;;;;;;8.32;5.10;;;20.70;99.90;21.20;98203.00;;;;5009301;28;87566;-65
2022/07/11 03:32:37;;;;;;;7.13;5.10;;;20.90;99.90;21.40;98212.00;;;;5007353;28;90002;-64
2022/07/11 03:37:49;;;;;;;9.23;5.40;;;21.30;99.90;21.80;98214.00;;;;5012479;28;87040;-63
2022/07/11 03:40:18;;;;;;;6.95;5.18;;;21.50;99.90;21.70;98222.00;;;;5029321;28;87171;-64
2022/07/11 03:42:44;;;;;;;8.88;5.85;;;21.30;99.90;21.40;98217.00;;;;5013143;28;89987;-63
2022/07/11 03:45:10;;;;;;;7.65;4.80;;;21.10;99.90;21.50;98204.00;;;;5010704;28;88187;-63
2022/07/11 03:47:37;;;;;;;6.90;5.05;;;21.20;99.90;21.80;98200.00;;;;5014831;28;87278;-62
2022/07/11 03:50:03;;;;;;;7.82;5.45;;;21.40;99.90;22.00;98192.00;;;;5014556;28;86973;-61
2022/07/11 03:52:30;;;;;;;10.18;4.65;;;21.70;99.90;22.30;98207.00;;;;5006219;28;90956;-62
2022/07/11 03:54:56;;;;;;;14.20;5.13;;;22.00;99.90;22.50;98206.00;;;;5010304;28;88294;-62
2022/07/11 03:57:22;;;;;;;10.45;5.32;;;22.20;99.90;22.30;98208.00;;;;5011898;28;87165;-64
2022/07/11 03:59:48;;;;;;;9.95;5.57;;;21.90;99.90;21.80;98205.00;;;;5008544;28;87073;-62
2022/07/11 04:02:14;;;;;;;9.80;5.43;;;21.50;99.90;21.50;98204.00;;;;5008036;28;87570;-64
2022/07/11 04:04:40;;;;;;;8.02;5.72;;;21.30;99.90;21.20;98195.00;;;;5010224;28;88741;-65
2022/07/11 04:07:06;;;;;;;8.05;5.97;;;21.00;99.90;21.10;98201.00;;;;5017183;28;87085;-63
2022/07/11 04:09:32;;;;;;;7.38;5.80;;;20.80;99.90;21.00;98205.00;;;;5012088;28;86211;-62
2022/07/11 04:11:58;;;;;;;11.07;6.20;;;20.70;99.90;21.20;98205.00;;;;5011772;28;87975;-63
2022/07/11 04:14:24;;;;;;;6.47;5.18;;;20.90;99.90;21.90;98203.00;;;;5010750;28;88366;-63
2022/07/11 04:16:51;;;;;;;8.35;5.45;;;21.60;99.90;22.50;98198.00;;;;5014727;28;88298;-63
2022/07/11 04:19:17;;;;;;;7.35;4.97;;;22.10;99.90;22.90;98203.00;;;;5010104;28;87076;-64
2022/07/11 04:21:43;;;;;;;7.70;5.28;;;22.60;99.90;23.10;98205.00;;;;5012453;28;87719;-64
2022/07/11 04:24:10;;;;;;;10.57;5.70;;;22.70;99.90;23.00;98201.00;;;;5009894;28;87238;-64
2022/07/11 04:26:36;;;;;;;8.00;5.75;;;22.70;99.90;23.10;98206.00;;;;5013440;28;87828;-65
2022/07/11 04:29:02;;;;;;;10.38;5.28;;;22.70;99.90;23.40;98201.00;;;;5008536;28;87050;-64
2022/07/11 04:31:28;;;;;;;9.38;5.78;;;23.00;99.90;23.50;98209.00;;;;5009679;28;88044;-64
2022/07/11 04:33:54;;;;;;;9.20;5.95;;;23.10;99.90;23.50;98191.00;;;;5013828;28;88456;-64
2022/07/11 04:36:20;;;;;;;11.88;5.50;;;23.10;99.90;23.60;98203.00;;;;5015395;28;87063;-65
2022/07/11 04:38:46;;;;;;;8.93;5.10;;;23.30;99.90;23.80;98203.00;;;;5012675;28;87591;-65
2022/07/11 04:41:13;;;;;;;6.35;5.18;;;23.40;99.90;23.80;98191.00;;;;5017392;28;88892;-64
2022/07/11 04:43:39;;;;;;;8.57;5.80;;;23.50;99.90;23.80;98198.00;;;;5019430;28;89339;-64
2022/07/11 04:46:05;;;;;;;14.63;6.03;;;23.40;99.90;23.60;98193.00;;;;5032736;28;86940;-64
2022/07/11 04:48:31;;;;;;;8.25;5.70;;;23.30;99.90;23.70;98188.00;;;;5033910;28;87551;-63
2022/07/11 04:50:57;;;;;;;7.88;5.32;;;23.30;99.90;24.10;98201.00;;;;5016706;28;87562;-64
2022/07/11 04:53:24;;;;;;;10.20;5.55;;;23.70;99.90;24.10;98186.00;;;;5032662;28;87787;-64
2022/07/11 04:55:50;;;;;;;8.07;5.22;;;23.70;99.90;24.20;98183.00;;;;5036116;28;86953;-63
2022/07/11 04:58:16;;;;;;;7.97;5.07;;;23.90;99.90;24.70;98175.00;;;;5036420;28;86747;-63
2022/07/11 05:00:42;;;;;;;8.52;5.20;;;24.20;99.90;24.70;98175.00;;;;5033162;28;87662;-64
2022/07/11 05:03:08;;;;;;;11.40;4.80;;;24.30;99.90;24.70;98177.00;;;;5016297;28;87417;-64
2022/07/11 05:05:35;;;;;;;11.32;4.93;;;24.20;99.90;24.50;98172.00;;;;5018875;28;88498;-64
2022/07/11 05:08:01;;;;;;;8.48;4.70;;;24.10;99.90;24.70;98177.00;;;;5032962;28;86973;-64
2022/07/11 05:10:27;;;;;;;8.35;4.88;;;24.20;99.90;24.70;98159.00;;;;5004480;28;90083;-64
2022/07/11 05:12:53;;;;;;;8.32;4.90;;;24.40;99.90;25.00;98164.00;;;;5032326;28;87428;-64
2022/07/11 05:15:19;;;;;;;9.32;4.68;;;24.60;99.90;25.40;98168.00;;;;5027110;28;87191;-64
2022/07/11 05:17:45;;;;;;;6.55;4.40;;;24.90;99.90;25.80;98167.00;;;;5034546;28;86998;-64
2022/07/11 05:20:11;;;;;;;7.63;4.80;;;25.20;99.90;25.90;98160.00;;;;5028636;28;87614;-63
2022/07/11 05:22:37;;;;;;;7.65;4.53;;;25.30;99.90;26.20;98170.00;;;;5043154;28;87342;-63
2022/07/11 05:25:04;;;;;;;8.65;4.35;;;25.50;99.90;26.10;98153.00;;;;5031263;28;87354;-64
2022/07/11 05:27:30;;;;;;;8.40;4.28;;;25.50;99.90;25.80;98162.00;;;;5037780;28;86946;-63
2022/07/11 05:29:56;;;;;;;6.97;4.60;;;25.30;99.90;25.40;98164.00;;;;5039479;28;89421;-62
2022/07/11 05:32:22;;;;;;;7.20;4.03;;;25.00;99.90;25.50;98160.00;;;;5034025;28;88237;-62
2022/07/11 05:34:48;;;;;;;7.97;4.72;;;25.10;99.90;25.70;98156.00;;;;5022964;28;86988;-64
2022/07/11 05:37:15;;;;;;;7.78;4.72;;;25.20;99.90;25.80;98169.00;;;;5022531;28;87187;-64
2022/07/11 05:39:41;;;;;;;8.60;4.07;;;25.40;99.90;26.20;98163.00;;;;5023615;28;87749;-64
2022/07/11 05:42:08;;;;;;;7.38;4.28;;;25.60;99.90;26.40;98156.00;;;;5040031;28;87185;-63
2022/07/11 05:44:34;;;;;;;7.75;4.55;;;25.90;99.90;26.80;98156.00;;;;5042275;27;87314;-64
2022/07/11 05:47:03;;;;;;;7.28;4.28;;;26.20;99.90;27.10;98156.00;;;;5037387;28;86311;-64
2022/07/11 05:49:31;;;;;;;8.85;4.32;;;26.50;99.90;27.30;98149.00;;;;5031808;28;87874;-63
2022/07/11 05:51:58;;;;;;;8.02;4.20;;;26.70;99.90;27.50;98154.00;;;;5031109;28;87461;-63
2022/07/11 05:54:24;;;;;;;7.78;4.55;;;26.90;99.90;27.50;98147.00;;;;5010099;28;88386;-63
2022/07/11 05:56:50;;;;;;;7.35;4.45;;;26.90;99.90;27.10;98154.00;;;;5032957;28;87096;-63
2022/07/11 05:59:16;;;;;;;5.65;4.40;;;26.60;99.90;26.80;98160.00;;;;5028501;28;90139;-63
2022/07/11 06:01:42;;;;;;;8.77;4.70;;;26.30;99.90;27.00;98149.00;;;;5039389;28;87562;-63
2022/07/11 06:04:09;;;;;;;6.20;4.45;;;26.50;99.90;27.50;98146.00;;;;5018796;28;86907;-64
2022/07/11 06:06:35;;;;;;;7.03;4.15;;;26.90;99.90;27.20;98149.00;;;;5039578;28;87084;-64
2022/07/11 06:09:01;;;;;;;8.45;4.00;;;26.60;99.90;26.80;98148.00;;;;5042237;28;88965;-63
2022/07/11 06:11:27;;;;;;;9.95;4.40;;;26.30;99.90;27.00;98144.00;;;;5012811;28;87518;-64
2022/07/11 06:13:53;;;;;;;9.73;4.18;;;26.50;99.90;26.90;98139.00;;;;5033362;28;87008;-64
2022/07/11 06:16:19;;;;;;;6.68;4.57;;;26.30;99.90;26.70;98141.00;;;;5015155;28;87037;-63
2022/07/11 06:18:46;;;;;;;7.93;4.72;;;26.30;99.90;26.60;98144.00;;;;5036003;28;89508;-64
2022/07/11 06:21:12;;;;;;;9.93;5.10;;;26.10;99.90;26.50;98143.00;;;;5040607;28;88175;-64
2022/07/11 06:23:40;;;;;;;7.40;4.75;;;26.10;99.90;26.70;98148.00;;;;5015941;28;87128;-64
2022/07/11 06:26:06;;;;;;;11.13;4.75;;;26.20;99.90;26.70;98142.00;;;;5035636;28;87024;-64
2022/07/11 06:28:33;;;;;;;6.82;4.20;;;26.20;99.90;27.00;98147.00;;;;5032757;28;87189;-64
2022/07/11 06:31:00;;;;;;;10.63;4.57;;;26.40;99.90;26.80;98148.00;;;;5028206;28;87482;-64
2022/07/11 06:33:26;;;;;;;13.07;4.72;;;26.20;99.90;26.60;98142.00;;;;5035657;28;87492;-63
2022/07/11 06:35:53;;;;;;;10.13;4.75;;;26.20;99.90;26.50;98148.00;;;;5033433;28;86502;-63
2022/07/11 06:38:20;;;;;;;5.53;3.95;;;26.10;99.90;26.20;98137.00;;;;5028941;28;88739;-62
2022/07/11 06:40:47;;;;;;;11.70;4.75;;;25.80;99.90;26.20;98140.00;;;;5013811;28;88306;-63
2022/07/11 06:43:13;;;;;;;6.68;4.72;;;25.90;99.90;26.10;98130.00;;;;5031369;28;89876;-62
2022/07/11 06:45:40;;;;;;;8.85;4.53;;;25.80;99.90;26.20;98132.00;;;;5033139;28;87083;-64
2022/07/11 06:48:07;;;;;;;7.45;4.60;;;25.90;99.90;26.20;98130.00;;;;5007697;28;87745;-64
2022/07/11 06:50:33;;;;;;;5.85;4.22;;;25.90;99.90;26.10;98140.00;;;;5032073;28;87475;-64
2022/07/11 06:52:59;;;;;;;6.10;4.63;;;25.80;99.90;26.10;98143.00;;;;5031864;28;87343;-63
2022/07/11 06:55:26;;;;;;;7.68;4.90;;;25.80;99.90;26.00;98133.00;;;;5033634;28;87053;-66
2022/07/11 06:57:52;;;;;;;6.43;4.32;;;25.60;99.90;26.00;98127.00;;;;5014208;28;87084;-64
2022/07/11 07:00:21;;;;;;;12.77;4.78;;;25.70;99.90;26.10;98143.00;;;;5028734;28;87659;-65
2022/07/11 07:02:47;;;;;;;13.20;4.55;;;25.80;99.90;26.10;98130.00;;;;4999163;28;87257;-64
2022/07/11 07:05:14;;;;;;;9.68;4.25;;;25.80;99.90;26.10;98136.00;;;;5021582;28;87214;-64
2022/07/11 07:07:40;;;;;;;8.27;4.35;;;25.80;99.90;26.20;98128.00;;;;5040307;28;89143;-63
2022/07/11 07:10:07;;;;;;;9.68;4.30;;;25.90;99.90;26.40;98131.00;;;;5036071;27;88300;-65
2022/07/11 07:12:38;;;;;;;10.40;4.15;;;26.00;99.90;26.50;98132.00;;;;5031580;28;87052;-64
2022/07/11 07:15:04;;;;;;;13.90;3.90;;;26.10;99.90;26.60;98125.00;;;;5034123;28;88503;-64
2022/07/11 07:17:31;;;;;;;11.93;4.40;;;26.20;99.90;26.60;98121.00;;;;5007406;28;90769;-63
2022/07/11 07:19:57;;;;;;;11.70;4.13;;;26.30;99.90;26.70;98113.00;;;;5025669;28;87509;-63
2022/07/11 07:22:23;;;;;;;10.07;3.78;;;26.40;99.90;26.80;98121.00;;;;5029903;28;87025;-64
2022/07/11 07:24:49;;;;;;;7.32;4.35;;;26.50;99.90;27.10;98120.00;;;;5037846;28;86368;-64
2022/07/11 07:27:16;;;;;;;7.90;3.67;;;26.70;99.90;27.10;98119.00;;;;5037714;28;88061;-64
2022/07/11 07:29:42;;;;;;;7.40;3.40;;;26.80;99.90;27.20;98131.00;;;;5006544;28;89831;-64
2022/07/11 07:32:08;;;;;;;7.15;3.63;;;26.90;99.90;27.30;98119.00;;;;5032411;28;88407;-64
2022/07/11 07:34:35;;;;;;;7.78;4.05;;;27.00;99.90;27.40;98126.00;;;;5021426;28;87323;-64
2022/07/11 07:37:01;;;;;;;5.55;4.00;;;27.10;99.90;27.50;98121.00;;;;5020229;28;87564;-64
2022/07/11 07:39:27;;;;;;;10.95;3.88;;;27.20;99.90;27.60;98126.00;;;;5028055;28;88414;-64
2022/07/11 07:41:54;;;;;;;9.60;4.05;;;27.30;99.90;27.80;98127.00;;;;5038726;28;87025;-64
2022/07/11 07:44:20;;;;;;;11.48;3.80;;;27.50;99.90;27.80;98115.00;;;;5040857;28;87444;-63
2022/07/11 07:46:46;;;;;;;7.65;4.30;;;27.40;99.90;27.80;98122.00;;;;5038706;28;88228;-63
2022/07/11 07:49:12;;;;;;;9.98;4.07;;;27.50;99.90;27.90;98118.00;;;;5030750;28;87354;-63
2022/07/11 07:51:39;;;;;;;9.05;4.13;;;27.60;99.90;27.90;98119.00;;;;5029576;28;87706;-62
2022/07/11 07:54:05;;;;;;;8.80;4.43;;;27.60;99.90;27.90;98122.00;;;;5027539;28;87102;-62
2022/07/11 07:56:31;;;;;;;7.35;4.13;;;27.60;99.90;28.10;98123.00;;;;5029879;28;88725;-62
2022/07/11 07:58:57;;;;;;;7.53;4.43;;;27.80;99.90;28.30;98117.00;;;;5024543;28;88524;-62
2022/07/11 08:01:35;;;;;;;7.07;4.10;;;27.90;99.90;28.30;98114.00;;;;5033827;28;87407;-63
2022/07/11 08:04:11;;;;;;;11.60;4.63;;;28.00;99.90;28.40;98108.00;;;;5026633;28;87172;-63
2022/07/11 08:06:38;;;;;;;7.22;4.20;;;28.00;99.90;28.50;98117.00;;;;5035247;28;87687;-63
2022/07/11 08:09:06;;;;;;;9.90;4.03;;;28.10;99.90;28.40;98126.00;;;;5040536;28;87387;-62
2022/07/11 08:11:33;;;;;;;8.02;4.13;;;28.00;99.90;28.50;98120.00;;;;5013755;28;87656;-62
2022/07/11 08:14:01;;;;;;;8.27;4.20;;;28.10;99.90;28.60;98119.00;;;;5031902;28;86570;-62
2022/07/11 08:16:29;;;;;;;9.27;4.22;;;28.20;99.90;28.60;98118.00;;;;5030003;28;87800;-64
2022/07/11 08:18:56;;;;;;;11.75;4.00;;;28.20;99.90;28.60;98120.00;;;;5034353;28;87520;-62
2022/07/11 08:21:22;;;;;;;11.52;3.80;;;28.20;99.90;28.70;98101.00;;;;5010374;28;88038;-61
2022/07/11 08:23:49;;;;;;;12.70;4.35;;;28.30;99.90;28.80;98106.00;;;;5037159;28;88230;-60
2022/07/11 08:26:15;;;;;;;13.98;4.20;;;28.50;99.90;28.80;98124.00;;;;5027166;28;87717;-62
2022/07/11 08:28:41;;;;;;;9.57;4.70;;;28.40;99.90;28.70;98109.00;;;;5031019;28;87271;-62
2022/07/11 08:31:08;;;;;;;6.15;4.32;;;28.20;99.90;28.50;98111.00;;;;5028802;28;87270;-61
2022/07/11 08:33:34;;;;;;;8.02;4.43;;;28.20;99.90;28.60;98102.00;;;;5029610;28;88933;-62
2022/07/11 08:36:00;;;;;;;5.63;4.22;;;28.20;99.90;28.80;98097.00;;;;5033387;28;88744;-61
2022/07/11 08:38:26;;;;;;;8.55;4.43;;;28.40;99.90;29.00;98093.00;;;;5035658;28;88547;-61
2022/07/11 08:40:52;;;;;;;12.73;4.15;;;28.70;99.90;29.20;98103.00;;;;5032390;28;88435;-61
2022/07/11 08:43:25;;;;;;;8.85;4.00;;;28.70;99.90;29.20;98100.00;;;;5031976;28;87494;-61
2022/07/11 08:45:52;;;;;;;6.80;4.43;;;28.70;99.90;29.00;98097.00;;;;4992208;28;90889;-62
2022/07/11 08:48:20;;;;;;;8.10;4.28;;;28.60;99.90;28.90;98101.00;;;;5009704;28;89466;-61
2022/07/11 08:50:46;;;;;;;14.05;4.18;;;28.50;99.90;29.00;98096.00;;;;5032123;28;87603;-60
2022/07/11 08:53:13;;;;;;;7.60;4.43;;;28.60;99.90;29.00;98098.00;;;;5030408;28;87312;-61
2022/07/11 08:55:40;;;;;;;6.78;3.70;;;28.70;99.90;29.10;98091.00;;;;5023638;28;87745;-61
2022/07/11 08:58:09;;;;;;;5.82;3.80;;;28.70;99.90;29.10;98090.00;;;;5014369;28;87632;-61
2022/07/11 09:00:36;;;;;;;9.45;4.03;;;28.80;99.90;29.00;98096.00;;;;5027449;28;87439;-61
2022/07/11 09:03:04;;;;;;;9.38;4.03;;;28.60;99.90;29.10;98095.00;;;;5011005;28;86604;-61
2022/07/11 09:05:32;;;;;;;12.63;3.85;;;28.70;99.90;29.20;98098.00;;;;5007234;28;89113;-60
2022/07/11 09:07:58;;;;;;;10.15;4.55;;;28.80;99.90;29.20;98094.00;;;;5026857;28;87050;-61
2022/07/11 09:10:25;;;;;;;12.30;4.15;;;28.70;99.90;29.20;98094.00;;;;5027734;28;88372;-61
2022/07/11 09:13:10;;;;;;;6.32;3.67;;;28.80;99.90;29.30;98092.00;;;;5027999;28;87095;-62
2022/07/11 09:15:45;;;;;;;9.80;4.30;;;28.90;99.90;29.40;98090.00;;;;5030158;28;87572;-61
2022/07/11 09:18:36;;;;;;;5.63;3.88;;;28.90;99.90;29.60;98083.00;;;;5029924;28;87320;-61
2022/07/11 09:26:49;;;;;;;13.43;4.88;;;29.10;99.90;29.50;98081.00;;;;5032391;28;89694;-62
2022/07/11 09:29:19;;;;;;;6.93;3.90;;;29.00;99.90;29.40;98090.00;;;;5032269;28;87174;-61
2022/07/11 09:31:46;;;;;;;5.85;4.00;;;28.90;99.90;29.30;98082.00;;;;5013799;28;87630;-62
2022/07/11 09:34:23;;;;;;;8.07;4.55;;;28.90;99.90;29.30;98085.00;;;;5036824;28;86998;-62
2022/07/11 09:36:54;;;;;;;8.43;4.50;;;28.90;99.90;29.40;98074.00;;;;5040601;28;88572;-61
2022/07/11 09:39:27;;;;;;;13.43;4.82;;;29.00;99.90;29.60;98075.00;;;;5041690;28;87500;-62
2022/07/11 09:41:54;;;;;;;9.88;4.50;;;29.20;99.90;29.80;98069.00;;;;5027105;28;87522;-62
2022/07/11 09:44:21;;;;;;;8.40;4.30;;;29.40;99.90;29.90;98062.00;;;;5036539;28;87546;-62
2022/07/11 09:46:50;;;;;;;6.82;3.80;;;29.50;99.90;29.90;98062.00;;;;5022265;28;89023;-62
2022/07/11 09:49:33;;;;;;;10.52;3.97;;;29.50;99.90;30.00;98059.00;;;;5025637;28;88822;-62
2022/07/11 09:52:16;;;;;;;8.20;3.55;;;29.60;99.90;30.00;98048.00;;;;5031244;28;87156;-61
2022/07/11 09:55:05;;;;;;;7.13;3.60;;;29.50;99.90;30.00;98053.00;;;;5031340;28;86807;-62
2022/07/11 09:57:36;;;;;;;11.35;4.47;;;29.60;99.90;30.10;98042.00;;;;5028991;28;87532;-63
2022/07/11 10:00:14;;;;;;;9.00;3.70;;;29.70;99.90;30.10;98044.00;;;;5037894;28;88016;-62
2022/07/11 10:02:40;;;;;;;17.40;3.92;;;29.70;99.90;30.10;98050.00;;;;5008286;28;87959;-62
2022/07/11 10:05:07;;;;;;;7.05;3.83;;;29.70;99.90;30.10;98047.00;;;;5015363;28;87769;-62
2022/07/11 10:07:34;;;;;;;7.80;4.28;;;29.70;99.90;30.10;98042.00;;;;5040722;28;87607;-62
2022/07/11 10:10:02;;;;;;;7.07;4.13;;;29.70;99.90;30.20;98049.00;;;;5039962;28;87314;-61
2022/07/11 10:12:31;;;;;;;9.48;4.57;;;29.80;99.90;30.30;98051.00;;;;5030617;28;86982;-62
2022/07/11 10:15:03;;;;;;;7.32;4.05;;;29.90;99.90;30.40;98050.00;;;;5038107;28;87012;-62
2022/07/11 10:18:18;;;;;;;6.20;3.70;;;30.00;99.90;30.40;98048.00;;;;5022879;28;87752;-62
2022/07/11 10:21:06;;;;;;;6.78;3.70;;;30.00;99.90;30.50;98053.00;;;;4999893;28;87785;-62
2022/07/11 10:23:43;;;;;;;8.02;4.10;;;30.00;99.90;30.40;98048.00;;;;5039360;28;87380;-61
2022/07/11 10:26:15;;;;;;;5.47;3.45;;;30.10;99.90;30.50;98034.00;;;;5021265;28;87020;-61
2022/07/11 10:28:53;;;;;;;12.85;3.50;;;30.10;99.90;30.60;98046.00;;;;5035503;28;88733;-61
2022/07/11 10:31:23;;;;;;;8.07;3.88;;;30.20;99.90;30.70;98049.00;;;;5009328;28;88340;-61
2022/07/11 10:34:18;;;;;;;8.75;4.35;;;30.30;99.90;30.70;98041.00;;;;5020550;28;86898;-61
2022/07/11 10:36:45;;;;;;;9.95;3.50;;;30.30;99.90;30.60;98038.00;;;;5020917;28;87374;-61
2022/07/11 10:39:34;;;;;;;7.63;4.15;;;30.20;99.90;30.60;98053.00;;;;5020406;28;87529;-60
2022/07/11 10:42:05;;;;;;;10.45;4.00;;;30.20;99.90;30.60;98053.00;;;;5022194;28;87374;-64
2022/07/11 10:44:54;;;;;;;9.13;4.32;;;30.20;99.90;30.60;98041.00;;;;5037047;28;87057;-70
2022/07/11 10:47:42;;;;;;;8.95;3.67;;;30.20;99.90;30.60;98029.00;;;;5017315;28;87769;-63
2022/07/11 10:50:38;;;;;;;11.13;3.85;;;30.30;99.90;30.60;98050.00;;;;5022701;28;87724;-64
2022/07/11 10:53:12;;;;;;;8.40;3.55;;;30.20;99.90;30.60;98043.00;;;;5021469;28;87384;-64
2022/07/11 10:56:03;;;;;;;8.57;3.80;;;30.20;99.90;30.60;98045.00;;;;5027377;28;88142;-62
2022/07/11 10:58:29;;;;;;;8.52;3.20;;;30.20;99.90;30.70;98036.00;;;;4987735;28;87927;-62
2022/07/11 11:01:16;;;;;;;13.02;4.05;;;30.30;99.90;30.90;98051.00;;;;5032698;28;89069;-62
2022/07/11 11:03:44;;;;;;;5.38;3.55;;;30.50;99.90;30.80;98029.00;;;;5034010;28;87317;-64
2022/07/11 11:06:12;;;;;;;4.70;3.47;;;30.40;99.90;30.70;98048.00;;;;5037334;28;87022;-62
2022/07/11 11:08:42;;;;;;;10.32;3.45;;;30.30;99.90;30.80;98048.00;;;;5037171;28;87178;-60